Погода Приморско-Дюнына неделю

Бургас, Болгария

14 - 20 июля
  • 14июля
    Сегодня
    +20°
    +31°
    Ясно и безоблачно
    ВремяПогодаТемператураВлажностьДавлениеВетер, м/сВероятность осадков
    00:00Ясно и безоблачно+23°C89 %759 мм2.2 м/с2 %
    03:00Ясно и безоблачно+23°C87 %759 мм2.2 м/с2 %
    06:00Ясно и безоблачно+23°C82 %759 мм2.9 м/с2 %
    09:00Ясно и безоблачно+27°C58 %759 мм3.5 м/с2 %
    12:00Ясно и безоблачно+30°C54 %759 мм4.8 м/с2 %
    15:00Ясно и безоблачно+29°C56 %759 мм5.5 м/с2 %
    18:00Ясно и безоблачно+29°C48 %759 мм2.9 м/с2 %
    21:00Ясно и безоблачно+26°C77 %759 мм2.7 м/с2 %
  • 15июля
    Понедельник
    +22°
    +32°
    Ясно и безоблачно
    ВремяПогодаТемператураВлажностьДавлениеВетер, м/сВероятность осадков
    00:00Ясно и безоблачно+23°C83 %759 мм1.1 м/с2 %
    03:00Ясно и безоблачно+21°C89 %759 мм2.3 м/с2 %
    06:00Ясно и безоблачно+20°C82 %759 мм2.8 м/с2 %
    09:00Практически безоблачно+26°C43 %759 мм2.7 м/с2 %
    12:00Ясно и безоблачно+31°C41 %759 мм3.8 м/с2 %
    15:00Ясно и безоблачно+31°C42 %759 мм3.6 м/с2 %
    18:00Небольшая облачность+31°C61 %758 мм2.6 м/с2 %
    21:00Небольшая облачность+27°C81 %759 мм1.4 м/с2 %
  • 16июля
    Вторник
    +24°
    +33°
    Ясно и безоблачно
    ВремяПогодаТемператураВлажностьДавлениеВетер, м/сВероятность осадков
    00:00Ясно и безоблачно+24°C91 %759 мм1.3 м/с2 %
    03:00Небольшая облачность+23°C91 %758 мм2.4 м/с2 %
    06:00Облачно с прояснениями+22°C73 %758 мм2.7 м/с2 %
    09:00Небольшая облачность+29°C49 %759 мм2.3 м/с2 %
    12:00Ясно и безоблачно+33°C47 %759 мм3.8 м/с2 %
    15:00Ясно и безоблачно+32°C58 %758 мм4.4 м/с2 %
    18:00Практически безоблачно+31°C70 %758 мм2.4 м/с2 %
    21:00Ясно и безоблачно+28°C84 %758 мм1.2 м/с2 %
  • 17июля
    Среда
    +24°
    +34°
    Ясно и безоблачно
    ВремяПогодаТемператураВлажностьДавлениеВетер, м/сВероятность осадков
    00:00Небольшая облачность+25°C89 %759 мм1.4 м/с2 %
    03:00Небольшая облачность+25°C89 %758 мм2.4 м/с2 %
    06:00Ясно и безоблачно+24°C78 %758 мм3.2 м/с2 %
    09:00Ясно и безоблачно+29°C57 %760 мм3.3 м/с2 %
    12:00Ясно и безоблачно+32°C61 %760 мм3.6 м/с2 %
    15:00Ясно и безоблачно+33°C53 %759 мм3.3 м/с2 %
    18:00Ясно и безоблачно+33°C57 %759 мм2.6 м/с2 %
    21:00Ясно и безоблачно+29°C75 %760 мм1.3 м/с2 %
  • 18июля
    Четверг
    +24°
    +35°
    Ясно и безоблачно
    ВремяПогодаТемператураВлажностьДавлениеВетер, м/сВероятность осадков
    00:00Ясно и безоблачно+26°C83 %760 мм0.9 м/с2 %
    03:00Ясно и безоблачно+25°C81 %760 мм1.7 м/с2 %
    06:00Ясно и безоблачно+25°C79 %760 мм2.1 м/с2 %
    09:00Ясно и безоблачно+31°C53 %760 мм2.3 м/с2 %
    12:00Ясно и безоблачно+34°C45 %761 мм3.2 м/с2 %
    15:00Ясно и безоблачно+34°C48 %760 мм2.7 м/с2 %
    18:00Практически безоблачно+33°C57 %759 мм2.2 м/с2 %
    21:00Ясно и безоблачно+29°C75 %760 мм2.3 м/с2 %
Мы используем cookies
Соглашаюсь